sensor_id;sensor_type;location;lat;lon;timestamp;pressure;altitude;pressure_sealevel;temperature;humidity
46836;BME280;32573;51.290;6.926;2023-02-01T00:01:26;100618.06;;;6.00;100.00
46836;BME280;32573;51.290;6.926;2023-02-01T00:03:55;100620.56;;;5.98;100.00
46836;BME280;32573;51.290;6.926;2023-02-01T00:06:24;100617.09;;;5.98;100.00
46836;BME280;32573;51.290;6.926;2023-02-01T00:08:52;100618.88;;;5.99;100.00
46836;BME280;32573;51.290;6.926;2023-02-01T00:11:23;100622.38;;;5.99;100.00
46836;BME280;32573;51.290;6.926;2023-02-01T00:13:53;100620.56;;;5.98;100.00
46836;BME280;32573;51.290;6.926;2023-02-01T00:16:23;100621.47;;;5.99;100.00
46836;BME280;32573;51.290;6.926;2023-02-01T00:18:57;100609.28;;;5.98;100.00
46836;BME280;32573;51.290;6.926;2023-02-01T00:21:27;100605.88;;;5.99;100.00
46836;BME280;32573;51.290;6.926;2023-02-01T00:23:55;100595.47;;;5.99;100.00
46836;BME280;32573;51.290;6.926;2023-02-01T00:26:27;100608.41;;;5.97;100.00
46836;BME280;32573;51.290;6.926;2023-02-01T00:28:59;100599.88;;;6.00;100.00
46836;BME280;32573;51.290;6.926;2023-02-01T00:31:27;100603.28;;;5.99;100.00
46836;BME280;32573;51.290;6.926;2023-02-01T00:33:57;100593.72;;;5.98;100.00
46836;BME280;32573;51.290;6.926;2023-02-01T00:36:26;100595.47;;;5.99;100.00
46836;BME280;32573;51.290;6.926;2023-02-01T00:38:55;100588.50;;;5.98;100.00
46836;BME280;32573;51.290;6.926;2023-02-01T00:41:25;100595.56;;;6.00;100.00
46836;BME280;32573;51.290;6.926;2023-02-01T00:43:54;100585.09;;;5.99;100.00
46836;BME280;32573;51.290;6.926;2023-02-01T00:46:22;100586.00;;;5.99;100.00
46836;BME280;32573;51.290;6.926;2023-02-01T00:48:51;100575.63;;;5.99;100.00
46836;BME280;32573;51.290;6.926;2023-02-01T00:51:23;100564.31;;;5.99;100.00
46836;BME280;32573;51.290;6.926;2023-02-01T00:53:53;100553.03;;;5.98;100.00
46836;BME280;32573;51.290;6.926;2023-02-01T00:56:21;100545.22;;;5.98;100.00
46836;BME280;32573;51.290;6.926;2023-02-01T00:58:50;100547.03;;;5.99;100.00
46836;BME280;32573;51.290;6.926;2023-02-01T01:01:21;100553.91;;;5.99;100.00
46836;BME280;32573;51.290;6.926;2023-02-01T01:03:51;100548.72;;;5.99;100.00
46836;BME280;32573;51.290;6.926;2023-02-01T01:06:24;100553.91;;;5.99;100.00
46836;BME280;32573;51.290;6.926;2023-02-01T01:08:53;100560.03;;;5.99;100.00
46836;BME280;32573;51.290;6.926;2023-02-01T01:11:24;100573.81;;;5.98;100.00
46836;BME280;32573;51.290;6.926;2023-02-01T01:13:55;100583.31;;;5.98;100.00
46836;BME280;32573;51.290;6.926;2023-02-01T01:16:25;100582.44;;;5.97;100.00
46836;BME280;32573;51.290;6.926;2023-02-01T01:18:55;100586.75;;;5.97;100.00
46836;BME280;32573;51.290;6.926;2023-02-01T01:21:25;100580.63;;;5.96;100.00
46836;BME280;32573;51.290;6.926;2023-02-01T01:23:55;100581.53;;;5.97;100.00
46836;BME280;32573;51.290;6.926;2023-02-01T01:26:25;100572.94;;;5.98;100.00
46836;BME280;32573;51.290;6.926;2023-02-01T01:28:55;100581.53;;;5.97;100.00
46836;BME280;32573;51.290;6.926;2023-02-01T01:31:24;100588.50;;;5.98;100.00
46836;BME280;32573;51.290;6.926;2023-02-01T01:33:55;100573.75;;;5.97;100.00
46836;BME280;32573;51.290;6.926;2023-02-01T01:36:26;100572.81;;;5.96;100.00
46836;BME280;32573;51.290;6.926;2023-02-01T01:38:56;100584.13;;;5.97;100.00
46836;BME280;32573;51.290;6.926;2023-02-01T01:41:28;100579.75;;;5.96;100.00
46836;BME280;32573;51.290;6.926;2023-02-01T01:44:03;100569.34;;;5.96;100.00
46836;BME280;32573;51.290;6.926;2023-02-01T01:46:35;100583.16;;;5.95;100.00
46836;BME280;32573;51.290;6.926;2023-02-01T01:49:07;100595.97;;;5.92;100.00
46836;BME280;32573;51.290;6.926;2023-02-01T01:51:41;100589.78;;;5.90;100.00
46836;BME280;32573;51.290;6.926;2023-02-01T01:54:16;100574.19;;;5.90;100.00
46836;BME280;32573;51.290;6.926;2023-02-01T01:56:46;100566.25;;;5.87;100.00
46836;BME280;32573;51.290;6.926;2023-02-01T01:59:17;100557.47;;;5.84;100.00
46836;BME280;32573;51.290;6.926;2023-02-01T02:01:46;100546.09;;;5.82;100.00
46836;BME280;32573;51.290;6.926;2023-02-01T02:04:15;100553.81;;;5.81;100.00
46836;BME280;32573;51.290;6.926;2023-02-01T02:06:48;100556.34;;;5.79;100.00
46836;BME280;32573;51.290;6.926;2023-02-01T02:09:18;100552.66;;;5.76;100.00
46836;BME280;32573;51.290;6.926;2023-02-01T02:11:48;100555.22;;;5.74;100.00
46836;BME280;32573;51.290;6.926;2023-02-01T02:14:20;100559.41;;;5.72;100.00
46836;BME280;32573;51.290;6.926;2023-02-01T02:16:57;100556.72;;;5.71;100.00
46836;BME280;32573;51.290;6.926;2023-02-01T02:20:04;100555.84;;;5.70;100.00
46836;BME280;32573;51.290;6.926;2023-02-01T02:26:23;100550.41;;;5.66;100.00
46836;BME280;32573;51.290;6.926;2023-02-01T02:32:44;100545.78;;;5.60;100.00
46836;BME280;32573;51.290;6.926;2023-02-01T02:35:26;100551.69;;;5.57;100.00
46836;BME280;32573;51.290;6.926;2023-02-01T02:38:08;100537.84;;;5.57;100.00
46836;BME280;32573;51.290;6.926;2023-02-01T02:40:46;100537.63;;;5.54;100.00
46836;BME280;32573;51.290;6.926;2023-02-01T02:43:21;100543.66;;;5.53;100.00
46836;BME280;32573;51.290;6.926;2023-02-01T02:46:16;100535.88;;;5.53;100.00
46836;BME280;32573;51.290;6.926;2023-02-01T02:49:11;100528.91;;;5.52;100.00
46836;BME280;32573;51.290;6.926;2023-02-01T02:51:46;100533.91;;;5.49;100.00
46836;BME280;32573;51.290;6.926;2023-02-01T02:54:50;100530.34;;;5.47;100.00
46836;BME280;32573;51.290;6.926;2023-02-01T02:57:24;100522.56;;;5.47;100.00
46836;BME280;32573;51.290;6.926;2023-02-01T03:00:15;100542.34;;;5.45;100.00
46836;BME280;32573;51.290;6.926;2023-02-01T03:03:02;100535.19;;;5.40;100.00
46836;BME280;32573;51.290;6.926;2023-02-01T03:05:49;100538.63;;;5.39;100.00
46836;BME280;32573;51.290;6.926;2023-02-01T03:08:21;100541.03;;;5.36;100.00
46836;BME280;32573;51.290;6.926;2023-02-01T03:10:54;100534.06;;;5.35;100.00
46836;BME280;32573;51.290;6.926;2023-02-01T03:13:33;100534.06;;;5.35;100.00
46836;BME280;32573;51.290;6.926;2023-02-01T03:16:08;100530.56;;;5.35;100.00
46836;BME280;32573;51.290;6.926;2023-02-01T03:18:46;100521.97;;;5.36;100.00
46836;BME280;32573;51.290;6.926;2023-02-01T03:21:21;100520.19;;;5.35;100.00
46836;BME280;32573;51.290;6.926;2023-02-01T03:23:53;100512.47;;;5.36;100.00
46836;BME280;32573;51.290;6.926;2023-02-01T03:26:25;100512.47;;;5.36;100.00
46836;BME280;32573;51.290;6.926;2023-02-01T03:29:00;100508.19;;;5.37;100.00
46836;BME280;32573;51.290;6.926;2023-02-01T03:31:31;100501.31;;;5.37;100.00
46836;BME280;32573;51.290;6.926;2023-02-01T03:34:01;100503.91;;;5.37;100.00
46836;BME280;32573;51.290;6.926;2023-02-01T03:36:35;100509.09;;;5.37;100.00
46836;BME280;32573;51.290;6.926;2023-02-01T03:39:09;100497.09;;;5.39;100.00
46836;BME280;32573;51.290;6.926;2023-02-01T03:41:44;100500.47;;;5.38;100.00
46836;BME280;32573;51.290;6.926;2023-02-01T03:44:20;100493.66;;;5.40;100.00
46836;BME280;32573;51.290;6.926;2023-02-01T03:46:56;100490.09;;;5.38;100.00
46836;BME280;32573;51.290;6.926;2023-02-01T03:49:28;100486.72;;;5.39;100.00
46836;BME280;32573;51.290;6.926;2023-02-01T03:51:58;100481.53;;;5.39;100.00
46836;BME280;32573;51.290;6.926;2023-02-01T03:54:29;100495.44;;;5.41;100.00
46836;BME280;32573;51.290;6.926;2023-02-01T03:57:01;100482.47;;;5.41;100.00
46836;BME280;32573;51.290;6.926;2023-02-01T03:59:31;100499.03;;;5.44;100.00
46836;BME280;32573;51.290;6.926;2023-02-01T04:02:00;100488.63;;;5.44;100.00
46836;BME280;32573;51.290;6.926;2023-02-01T04:04:28;100482.66;;;5.45;100.00
46836;BME280;32573;51.290;6.926;2023-02-01T04:06:57;100477.47;;;5.45;100.00
46836;BME280;32573;51.290;6.926;2023-02-01T04:09:25;100476.63;;;5.46;100.00
46836;BME280;32573;51.290;6.926;2023-02-01T04:11:55;100471.44;;;5.46;100.00
46836;BME280;32573;51.290;6.926;2023-02-01T04:14:24;100478.44;;;5.47;100.00
46836;BME280;32573;51.290;6.926;2023-02-01T04:16:52;100461.06;;;5.46;100.00
46836;BME280;32573;51.290;6.926;2023-02-01T04:19:21;100448.09;;;5.46;100.00
46836;BME280;32573;51.290;6.926;2023-02-01T04:21:49;100450.69;;;5.46;100.00
46836;BME280;32573;51.290;6.926;2023-02-01T04:24:18;100447.28;;;5.47;100.00
46836;BME280;32573;51.290;6.926;2023-02-01T04:26:46;100439.41;;;5.45;100.00
46836;BME280;32573;51.290;6.926;2023-02-01T04:29:16;100448.81;;;5.43;100.00
46836;BME280;32573;51.290;6.926;2023-02-01T04:31:45;100443.53;;;5.41;100.00
46836;BME280;32573;51.290;6.926;2023-02-01T04:34:13;100453.84;;;5.40;100.00
46836;BME280;32573;51.290;6.926;2023-02-01T04:36:42;100453.69;;;5.37;100.00
46836;BME280;32573;51.290;6.926;2023-02-01T04:39:13;100469.34;;;5.38;100.00
46836;BME280;32573;51.290;6.926;2023-02-01T04:41:42;100477.94;;;5.37;100.00
46836;BME280;32573;51.290;6.926;2023-02-01T04:44:13;100477.06;;;5.37;100.00
46836;BME280;32573;51.290;6.926;2023-02-01T04:46:44;100481.31;;;5.36;100.00
46836;BME280;32573;51.290;6.926;2023-02-01T04:49:13;100477.06;;;5.37;100.00
46836;BME280;32573;51.290;6.926;2023-02-01T04:51:42;100480.53;;;5.37;100.00
46836;BME280;32573;51.290;6.926;2023-02-01T04:54:11;100470.94;;;5.36;100.00
46836;BME280;32573;51.290;6.926;2023-02-01T04:56:40;100460.56;;;5.36;100.00
46836;BME280;32573;51.290;6.926;2023-02-01T04:59:10;100470.06;;;5.36;100.00
46836;BME280;32573;51.290;6.926;2023-02-01T05:01:38;100478.72;;;5.36;100.00
46836;BME280;32573;51.290;6.926;2023-02-01T05:04:08;100473.53;;;5.36;100.00
46836;BME280;32573;51.290;6.926;2023-02-01T05:06:37;100477.94;;;5.37;100.00
46836;BME280;32573;51.290;6.926;2023-02-01T05:09:06;100483.13;;;5.37;100.00
46836;BME280;32573;51.290;6.926;2023-02-01T05:11:34;100476.13;;;5.36;100.00
46836;BME280;32573;51.290;6.926;2023-02-01T05:14:20;100496.91;;;5.36;100.00
46836;BME280;32573;51.290;6.926;2023-02-01T05:16:49;100479.56;;;5.35;100.00
46836;BME280;32573;51.290;6.926;2023-02-01T05:19:19;100480.38;;;5.34;100.00
46836;BME280;32573;51.290;6.926;2023-02-01T05:21:47;100486.34;;;5.33;100.00
46836;BME280;32573;51.290;6.926;2023-02-01T05:24:16;100487.09;;;5.31;100.00
46836;BME280;32573;51.290;6.926;2023-02-01T05:26:47;100491.41;;;5.30;100.00
46836;BME280;32573;51.290;6.926;2023-02-01T05:29:17;100494.81;;;5.29;100.00
46836;BME280;32573;51.290;6.926;2023-02-01T05:31:47;100489.63;;;5.29;100.00
46836;BME280;32573;51.290;6.926;2023-02-01T05:34:16;100489.63;;;5.29;100.00
46836;BME280;32573;51.290;6.926;2023-02-01T05:36:46;100487.81;;;5.28;100.00
46836;BME280;32573;51.290;6.926;2023-02-01T05:39:15;100483.50;;;5.29;100.00
46836;BME280;32573;51.290;6.926;2023-02-01T05:41:43;100480.91;;;5.29;100.00
46836;BME280;32573;51.290;6.926;2023-02-01T05:44:12;100487.81;;;5.28;100.00
46836;BME280;32573;51.290;6.926;2023-02-01T05:46:40;100483.44;;;5.27;100.00
46836;BME280;32573;51.290;6.926;2023-02-01T05:49:09;100493.84;;;5.27;100.00
46836;BME280;32573;51.290;6.926;2023-02-01T05:51:37;100493.72;;;5.26;100.00
46836;BME280;32573;51.290;6.926;2023-02-01T05:54:08;100494.47;;;5.23;100.00
46836;BME280;32573;51.290;6.926;2023-02-01T05:56:37;100492.69;;;5.22;100.00
46836;BME280;32573;51.290;6.926;2023-02-01T05:59:05;100487.50;;;5.22;100.00
46836;BME280;32573;51.290;6.926;2023-02-01T06:01:34;100484.91;;;5.22;100.00
46836;BME280;32573;51.290;6.926;2023-02-01T06:04:02;100474.53;;;5.22;100.00
46836;BME280;32573;51.290;6.926;2023-02-01T06:06:31;100470.22;;;5.23;100.00
46836;BME280;32573;51.290;6.926;2023-02-01T06:09:00;100476.19;;;5.22;100.00
46836;BME280;32573;51.290;6.926;2023-02-01T06:11:30;100475.31;;;5.21;100.00
46836;BME280;32573;51.290;6.926;2023-02-01T06:13:59;100476.19;;;5.22;100.00
46836;BME280;32573;51.290;6.926;2023-02-01T06:16:28;100460.63;;;5.22;100.00
46836;BME280;32573;51.290;6.926;2023-02-01T06:18:58;100479.72;;;5.22;100.00
46836;BME280;32573;51.290;6.926;2023-02-01T06:21:27;100480.50;;;5.21;100.00
46836;BME280;32573;51.290;6.926;2023-02-01T06:23:55;100503.06;;;5.22;100.00
46836;BME280;32573;51.290;6.926;2023-02-01T06:26:25;100488.38;;;5.23;100.00
46836;BME280;32573;51.290;6.926;2023-02-01T06:28:57;100488.38;;;5.23;100.00
46836;BME280;32573;51.290;6.926;2023-02-01T06:31:25;100489.28;;;5.23;100.00
46836;BME280;32573;51.290;6.926;2023-02-01T06:33:54;100495.34;;;5.24;100.00
46836;BME280;32573;51.290;6.926;2023-02-01T06:36:22;100497.16;;;5.25;100.00
46836;BME280;32573;51.290;6.926;2023-02-01T06:38:51;100492.84;;;5.25;100.00
46836;BME280;32573;51.290;6.926;2023-02-01T06:41:19;100498.13;;;5.27;100.00
46836;BME280;32573;51.290;6.926;2023-02-01T06:43:48;100504.22;;;5.27;100.00
46836;BME280;32573;51.290;6.926;2023-02-01T06:46:18;100497.31;;;5.28;100.00
46836;BME280;32573;51.290;6.926;2023-02-01T06:48:48;100508.56;;;5.28;100.00
46836;BME280;32573;51.290;6.926;2023-02-01T06:51:20;100501.69;;;5.29;100.00
46836;BME280;32573;51.290;6.926;2023-02-01T06:53:49;100506.88;;;5.29;100.00
46836;BME280;32573;51.290;6.926;2023-02-01T06:56:17;100496.59;;;5.30;100.00
46836;BME280;32573;51.290;6.926;2023-02-01T06:58:47;100497.47;;;5.31;100.00
46836;BME280;32573;51.290;6.926;2023-02-01T07:01:16;100493.16;;;5.31;100.00
46836;BME280;32573;51.290;6.926;2023-02-01T07:03:49;100491.41;;;5.30;100.00
46836;BME280;32573;51.290;6.926;2023-02-01T07:06:18;100498.34;;;5.31;100.00
46836;BME280;32573;51.290;6.926;2023-02-01T07:08:47;100504.53;;;5.33;100.00
46836;BME280;32573;51.290;6.926;2023-02-01T07:11:17;100502.75;;;5.32;100.00
46836;BME280;32573;51.290;6.926;2023-02-01T07:13:46;100500.16;;;5.32;100.00
46836;BME280;32573;51.290;6.926;2023-02-01T07:16:17;100503.63;;;5.33;100.00
46836;BME280;32573;51.290;6.926;2023-02-01T07:18:49;100509.72;;;5.33;100.00
46836;BME280;32573;51.290;6.926;2023-02-01T07:21:19;100514.91;;;5.33;100.00
46836;BME280;32573;51.290;6.926;2023-02-01T07:23:47;100518.47;;;5.35;100.00
46836;BME280;32573;51.290;6.926;2023-02-01T07:26:16;100518.59;;;5.37;100.00
46836;BME280;32573;51.290;6.926;2023-02-01T07:28:44;100517.66;;;5.36;100.00
46836;BME280;32573;51.290;6.926;2023-02-01T07:31:15;100514.28;;;5.37;100.00
46836;BME280;32573;51.290;6.926;2023-02-01T07:33:45;100520.44;;;5.39;100.00
46836;BME280;32573;51.290;6.926;2023-02-01T07:36:17;100517.84;;;5.39;100.00
46836;BME280;32573;51.290;6.926;2023-02-01T07:38:46;100530.00;;;5.40;100.00
46836;BME280;32573;51.290;6.926;2023-02-01T07:41:15;100531.78;;;5.41;100.00
46836;BME280;32573;51.290;6.926;2023-02-01T07:43:44;100521.50;;;5.43;100.00
46836;BME280;32573;51.290;6.926;2023-02-01T07:46:13;100515.47;;;5.44;100.00
46836;BME280;32573;51.290;6.926;2023-02-01T07:48:42;100533.75;;;5.46;100.00
46836;BME280;32573;51.290;6.926;2023-02-01T07:51:12;100528.56;;;5.46;100.00
46836;BME280;32573;51.290;6.926;2023-02-01T07:53:46;100531.25;;;5.47;100.00
46836;BME280;32573;51.290;6.926;2023-02-01T07:56:16;100520.03;;;5.48;100.00
46836;BME280;32573;51.290;6.926;2023-02-01T07:58:47;100517.53;;;5.50;100.00
46836;BME280;32573;51.290;6.926;2023-02-01T08:01:17;100516.72;;;5.51;100.00
46836;BME280;32573;51.290;6.926;2023-02-01T08:03:49;100520.28;;;5.53;100.00
46836;BME280;32573;51.290;6.926;2023-02-01T08:06:18;100528.19;;;5.54;100.00
46836;BME280;32573;51.290;6.926;2023-02-01T08:08:50;100534.25;;;5.55;100.00
46836;BME280;32573;51.290;6.926;2023-02-01T08:11:19;100530.94;;;5.57;100.00
46836;BME280;32573;51.290;6.926;2023-02-01T08:13:52;100542.19;;;5.58;100.00
46836;BME280;32573;51.290;6.926;2023-02-01T08:16:21;100535.28;;;5.58;100.00
46836;BME280;32573;51.290;6.926;2023-02-01T08:18:51;100541.38;;;5.59;100.00
46836;BME280;32573;51.290;6.926;2023-02-01T08:21:22;100532.78;;;5.60;100.00
46836;BME280;32573;51.290;6.926;2023-02-01T08:23:53;100548.38;;;5.60;100.00
46836;BME280;32573;51.290;6.926;2023-02-01T08:26:25;100545.78;;;5.60;100.00
46836;BME280;32573;51.290;6.926;2023-02-01T08:28:55;100544.88;;;5.59;100.00
46836;BME280;32573;51.290;6.926;2023-02-01T08:31:25;100555.34;;;5.61;100.00
46836;BME280;32573;51.290;6.926;2023-02-01T08:33:57;100557.94;;;5.61;100.00
46836;BME280;32573;51.290;6.926;2023-02-01T08:36:27;100555.34;;;5.61;100.00
46836;BME280;32573;51.290;6.926;2023-02-01T08:38:58;100567.53;;;5.62;100.00
46836;BME280;32573;51.290;6.926;2023-02-01T08:41:28;100560.53;;;5.61;100.00
46836;BME280;32573;51.290;6.926;2023-02-01T08:43:57;100566.59;;;5.61;100.00
46836;BME280;32573;51.290;6.926;2023-02-01T08:46:26;100574.50;;;5.63;100.00
46836;BME280;32573;51.290;6.926;2023-02-01T08:48:55;100572.72;;;5.62;100.00
46836;BME280;32573;51.290;6.926;2023-02-01T08:51:24;100571.06;;;5.64;100.00
46836;BME280;32573;51.290;6.926;2023-02-01T08:53:53;100563.28;;;5.64;100.00
46836;BME280;32573;51.290;6.926;2023-02-01T08:56:23;100569.47;;;5.66;100.00
46836;BME280;32573;51.290;6.926;2023-02-01T08:58:51;100574.66;;;5.66;100.00
46836;BME280;32573;51.290;6.926;2023-02-01T09:01:20;100562.59;;;5.67;100.00
46836;BME280;32573;51.290;6.926;2023-02-01T09:03:51;100578.22;;;5.68;100.00
46836;BME280;32573;51.290;6.926;2023-02-01T09:06:25;100571.31;;;5.69;100.00
46836;BME280;32573;51.290;6.926;2023-02-01T09:08:54;100572.31;;;5.71;100.00
46836;BME280;32573;51.290;6.926;2023-02-01T09:11:24;100581.09;;;5.73;100.00
46836;BME280;32573;51.290;6.926;2023-02-01T09:13:52;100568.19;;;5.74;100.00
46836;BME280;32573;51.290;6.926;2023-02-01T09:16:21;100558.59;;;5.73;100.00
46836;BME280;32573;51.290;6.926;2023-02-01T09:18:50;100554.38;;;5.75;100.00
46836;BME280;32573;51.290;6.926;2023-02-01T09:21:38;100537.97;;;5.76;100.00
46836;BME280;32573;51.290;6.926;2023-02-01T09:24:08;100553.66;;;5.78;100.00
46836;BME280;32573;51.290;6.926;2023-02-01T09:26:39;100549.34;;;5.78;100.00
46836;BME280;32573;51.290;6.926;2023-02-01T09:29:08;100545.97;;;5.79;100.00
46836;BME280;32573;51.290;6.926;2023-02-01T09:31:38;100551.94;;;5.78;100.00
46836;BME280;32573;51.290;6.926;2023-02-01T09:34:16;100546.84;;;5.80;100.00
46836;BME280;32573;51.290;6.926;2023-02-01T09:36:44;100542.53;;;5.80;100.00
46836;BME280;32573;51.290;6.926;2023-02-01T09:39:13;100536.50;;;5.81;100.00
46836;BME280;32573;51.290;6.926;2023-02-01T09:41:51;100537.50;;;5.83;100.00
46836;BME280;32573;51.290;6.926;2023-02-01T09:44:39;100532.38;;;5.85;100.00
46836;BME280;32573;51.290;6.926;2023-02-01T09:47:13;100535.16;;;5.88;100.00
46836;BME280;32573;51.290;6.926;2023-02-01T09:49:49;100530.03;;;5.90;100.00
46836;BME280;32573;51.290;6.926;2023-02-01T09:52:25;100535.28;;;5.91;100.00
46836;BME280;32573;51.290;6.926;2023-02-01T09:54:58;100525.13;;;5.94;100.00
46836;BME280;32573;51.290;6.926;2023-02-01T09:57:34;100531.19;;;5.95;100.00
46836;BME280;32573;51.290;6.926;2023-02-01T10:00:14;100532.19;;;5.97;100.00
46836;BME280;32573;51.290;6.926;2023-02-01T10:02:45;100538.31;;;5.99;100.00
46836;BME280;32573;51.290;6.926;2023-02-01T10:05:15;100545.31;;;6.00;100.00
46836;BME280;32573;51.290;6.926;2023-02-01T10:07:53;100531.50;;;6.01;100.00
46836;BME280;32573;51.290;6.926;2023-02-01T10:10:31;100520.31;;;6.02;100.00
46836;BME280;32573;51.290;6.926;2023-02-01T10:13:22;100522.09;;;6.03;100.00
46836;BME280;32573;51.290;6.926;2023-02-01T10:16:06;100527.28;;;6.03;100.00
46836;BME280;32573;51.290;6.926;2023-02-01T10:18:51;100540.28;;;6.03;100.00
46836;BME280;32573;51.290;6.926;2023-02-01T10:21:32;100547.25;;;6.04;100.00
46836;BME280;32573;51.290;6.926;2023-02-01T10:24:20;100524.84;;;6.06;100.00
46836;BME280;32573;51.290;6.926;2023-02-01T10:26:56;100528.41;;;6.08;100.00
46836;BME280;32573;51.290;6.926;2023-02-01T10:29:34;100511.22;;;6.10;100.00
46836;BME280;32573;51.290;6.926;2023-02-01T10:32:19;100509.59;;;6.12;100.00
46836;BME280;32573;51.290;6.926;2023-02-01T10:34:50;100526.94;;;6.13;100.00
46836;BME280;32573;51.290;6.926;2023-02-01T10:37:26;100514.94;;;6.15;100.00
46836;BME280;32573;51.290;6.926;2023-02-01T10:39:57;100529.69;;;6.16;100.00
46836;BME280;32573;51.290;6.926;2023-02-01T10:42:28;100520.28;;;6.18;100.00
46836;BME280;32573;51.290;6.926;2023-02-01T10:45:02;100534.34;;;6.22;100.00
46836;BME280;32573;51.290;6.926;2023-02-01T10:47:31;100523.13;;;6.23;100.00
46836;BME280;32573;51.290;6.926;2023-02-01T10:50:17;100534.41;;;6.23;100.00
46836;BME280;32573;51.290;6.926;2023-02-01T10:52:50;100524.97;;;6.25;100.00
46836;BME280;32573;51.290;6.926;2023-02-01T10:55:34;100525.94;;;6.28;100.00
46836;BME280;32573;51.290;6.926;2023-02-01T10:58:10;100531.31;;;6.31;100.00
46836;BME280;32573;51.290;6.926;2023-02-01T11:00:47;100541.84;;;6.34;100.00
46836;BME280;32573;51.290;6.926;2023-02-01T11:03:22;100510.75;;;6.35;100.00
46836;BME280;32573;51.290;6.926;2023-02-01T11:05:59;100498.72;;;6.37;100.00
46836;BME280;32573;51.290;6.926;2023-02-01T11:08:28;100509.19;;;6.39;100.00
46836;BME280;32573;51.290;6.926;2023-02-01T11:10:58;100499.75;;;6.41;100.00
46836;BME280;32573;51.290;6.926;2023-02-01T11:13:29;100506.75;;;6.42;100.00
46836;BME280;32573;51.290;6.926;2023-02-01T11:16:02;100508.53;;;6.43;100.00
46836;BME280;32573;51.290;6.926;2023-02-01T11:18:36;100506.81;;;6.43;100.00
46836;BME280;32573;51.290;6.926;2023-02-01T11:21:06;100504.31;;;6.45;100.00
46836;BME280;32573;51.290;6.926;2023-02-01T11:23:40;100499.09;;;6.45;100.00
46836;BME280;32573;51.290;6.926;2023-02-01T11:26:12;100504.38;;;6.46;100.00
46836;BME280;32573;51.290;6.926;2023-02-01T11:28:50;100504.44;;;6.48;100.00
46836;BME280;32573;51.290;6.926;2023-02-01T11:31:20;100485.44;;;6.49;100.00
46836;BME280;32573;51.290;6.926;2023-02-01T11:33:52;100489.91;;;6.52;100.00
46836;BME280;32573;51.290;6.926;2023-02-01T11:36:24;100489.06;;;6.53;100.00
46836;BME280;32573;51.290;6.926;2023-02-01T11:39:08;100476.16;;;6.54;100.00
46836;BME280;32573;51.290;6.926;2023-02-01T11:41:42;100472.72;;;6.55;100.00
46836;BME280;32573;51.290;6.926;2023-02-01T11:44:20;100463.22;;;6.56;100.00
46836;BME280;32573;51.290;6.926;2023-02-01T11:46:51;100467.63;;;6.57;100.00
46836;BME280;32573;51.290;6.926;2023-02-01T11:49:21;100456.31;;;6.56;100.00
46836;BME280;32573;51.290;6.926;2023-02-01T11:52:01;100451.28;;;6.59;100.00
46836;BME280;32573;51.290;6.926;2023-02-01T11:54:45;100453.88;;;6.59;100.00
46836;BME280;32573;51.290;6.926;2023-02-01T11:57:21;100452.16;;;6.60;100.00
46836;BME280;32573;51.290;6.926;2023-02-01T12:00:15;100452.16;;;6.60;100.00
46836;BME280;32573;51.290;6.926;2023-02-01T12:03:11;100456.63;;;6.62;100.00
46836;BME280;32573;51.290;6.926;2023-02-01T12:05:50;100441.91;;;6.63;100.00
46836;BME280;32573;51.290;6.926;2023-02-01T12:08:48;100434.19;;;6.64;100.00
46836;BME280;32573;51.290;6.926;2023-02-01T12:11:35;100444.59;;;6.64;100.00
46836;BME280;32573;51.290;6.926;2023-02-01T12:14:10;100435.06;;;6.65;100.00
46836;BME280;32573;51.290;6.926;2023-02-01T12:16:52;100435.06;;;6.65;100.00
46836;BME280;32573;51.290;6.926;2023-02-01T12:19:34;100432.56;;;6.66;100.00
46836;BME280;32573;51.290;6.926;2023-02-01T12:22:22;100441.25;;;6.67;100.00
46836;BME280;32573;51.290;6.926;2023-02-01T12:25:21;100433.50;;;6.68;100.00
46836;BME280;32573;51.290;6.926;2023-02-01T12:34:39;100433.56;;;6.70;100.00
46836;BME280;32573;51.290;6.926;2023-02-01T12:37:21;100424.19;;;6.74;100.00
46836;BME280;32573;51.290;6.926;2023-02-01T12:39:58;100415.59;;;6.75;100.00
46836;BME280;32573;51.290;6.926;2023-02-01T12:42:33;100406.91;;;6.74;100.00
46836;BME280;32573;51.290;6.926;2023-02-01T12:45:11;100401.75;;;6.76;100.00
46836;BME280;32573;51.290;6.926;2023-02-01T12:47:47;100399.16;;;6.76;100.00
46836;BME280;32573;51.290;6.926;2023-02-01T12:50:23;100400.13;;;6.78;100.00
46836;BME280;32573;51.290;6.926;2023-02-01T12:52:54;100392.31;;;6.78;100.00
46836;BME280;32573;51.290;6.926;2023-02-01T12:55:34;100393.28;;;6.80;100.00
46836;BME280;32573;51.290;6.926;2023-02-01T12:58:09;100394.91;;;6.78;100.00
46836;BME280;32573;51.290;6.926;2023-02-01T13:00:44;100390.69;;;6.80;100.00
46836;BME280;32573;51.290;6.926;2023-02-01T13:03:22;100385.47;;;6.80;100.00
46836;BME280;32573;51.290;6.926;2023-02-01T13:05:59;100377.69;;;6.80;100.00
46836;BME280;32573;51.290;6.926;2023-02-01T13:08:36;100379.44;;;6.81;100.00
46836;BME280;32573;51.290;6.926;2023-02-01T13:11:10;100391.66;;;6.82;100.00
46836;BME280;32573;51.290;6.926;2023-02-01T13:13:48;100370.88;;;6.83;100.00
46836;BME280;32573;51.290;6.926;2023-02-01T13:16:24;100376.97;;;6.84;100.00
46836;BME280;32573;51.290;6.926;2023-02-01T13:19:03;100385.69;;;6.84;100.00
46836;BME280;32573;51.290;6.926;2023-02-01T13:21:39;100384.94;;;6.87;100.00
46836;BME280;32573;51.290;6.926;2023-02-01T13:24:29;100386.72;;;6.88;100.00
46836;BME280;32573;51.290;6.926;2023-02-01T13:26:59;100369.34;;;6.87;100.00
46836;BME280;32573;51.290;6.926;2023-02-01T13:29:29;100381.50;;;6.88;100.00
46836;BME280;32573;51.290;6.926;2023-02-01T13:32:10;100376.31;;;6.88;100.00
46836;BME280;32573;51.290;6.926;2023-02-01T13:35:03;100377.19;;;6.88;100.00